sensor_id;sensor_type;location;lat;lon;timestamp;pressure;altitude;pressure_sealevel;temperature;humidity
71795;BME280;59641;45.188;5.712;2022-07-29T00:00:53;98955.84;;;29.38;31.09
71795;BME280;59641;45.188;5.712;2022-07-29T00:03:18;98959.31;;;29.35;31.31
71795;BME280;59641;45.188;5.712;2022-07-29T00:05:44;98963.22;;;29.34;31.20
71795;BME280;59641;45.188;5.712;2022-07-29T00:08:10;98973.03;;;29.31;31.25
71795;BME280;59641;45.188;5.712;2022-07-29T00:10:35;98977.31;;;29.28;31.03
71795;BME280;59641;45.188;5.712;2022-07-29T00:13:01;98964.19;;;29.25;31.40
71795;BME280;59641;45.188;5.712;2022-07-29T00:15:27;98970.88;;;29.24;31.16
71795;BME280;59641;45.188;5.712;2022-07-29T00:17:52;98962.25;;;29.26;30.93
71795;BME280;59641;45.188;5.712;2022-07-29T00:20:18;98964.66;;;29.27;31.01
71795;BME280;59641;45.188;5.712;2022-07-29T00:22:43;98958.41;;;29.30;30.90
71795;BME280;59641;45.188;5.712;2022-07-29T00:25:09;98960.47;;;29.34;30.84
71795;BME280;59641;45.188;5.712;2022-07-29T00:27:35;98960.47;;;29.34;30.81
71795;BME280;59641;45.188;5.712;2022-07-29T00:30:01;98965.91;;;29.30;31.06
71795;BME280;59641;45.188;5.712;2022-07-29T00:32:27;98961.53;;;29.29;31.08
71795;BME280;59641;45.188;5.712;2022-07-29T00:34:52;98956.72;;;29.26;31.03
71795;BME280;59641;45.188;5.712;2022-07-29T00:37:36;98970.97;;;29.28;31.09
71795;BME280;59641;45.188;5.712;2022-07-29T00:40:02;98974.53;;;29.28;31.34
71795;BME280;59641;45.188;5.712;2022-07-29T00:42:28;98966.97;;;29.25;31.10
71795;BME280;59641;45.188;5.712;2022-07-29T00:44:53;98966.16;;;29.25;31.21
71795;BME280;59641;45.188;5.712;2022-07-29T00:47:19;98966.50;;;29.23;30.65
71795;BME280;59641;45.188;5.712;2022-07-29T00:49:44;98960.53;;;29.21;31.02
71795;BME280;59641;45.188;5.712;2022-07-29T00:52:11;98962.84;;;29.19;31.01
71795;BME280;59641;45.188;5.712;2022-07-29T00:54:38;98957.31;;;29.19;31.31
71795;BME280;59641;45.188;5.712;2022-07-29T00:57:06;98960.09;;;29.19;31.25
71795;BME280;59641;45.188;5.712;2022-07-29T00:59:31;98958.38;;;29.15;31.23
71795;BME280;59641;45.188;5.712;2022-07-29T01:01:57;98964.16;;;29.09;31.42
71795;BME280;59641;45.188;5.712;2022-07-29T01:04:22;98961.97;;;29.03;31.38
71795;BME280;59641;45.188;5.712;2022-07-29T01:06:48;98958.22;;;28.95;31.18
71795;BME280;59641;45.188;5.712;2022-07-29T01:09:15;98957.69;;;28.89;31.41
71795;BME280;59641;45.188;5.712;2022-07-29T01:11:42;98951.25;;;28.85;31.26
71795;BME280;59641;45.188;5.712;2022-07-29T01:14:09;98953.56;;;28.83;31.65
71795;BME280;59641;45.188;5.712;2022-07-29T01:16:51;98954.72;;;28.82;32.02
71795;BME280;59641;45.188;5.712;2022-07-29T01:30:56;98958.06;;;28.76;32.40
71795;BME280;59641;45.188;5.712;2022-07-29T01:33:25;98954.84;;;28.74;32.83
71795;BME280;59641;45.188;5.712;2022-07-29T01:36:14;98967.06;;;28.73;32.82
71795;BME280;59641;45.188;5.712;2022-07-29T01:38:42;98956.38;;;28.71;33.26
71795;BME280;59641;45.188;5.712;2022-07-29T01:41:14;98956.72;;;28.70;32.83
71795;BME280;59641;45.188;5.712;2022-07-29T01:43:54;98957.06;;;28.68;33.12
71795;BME280;59641;45.188;5.712;2022-07-29T01:46:27;98956.63;;;28.66;32.84
71795;BME280;59641;45.188;5.712;2022-07-29T01:49:01;98958.47;;;28.62;33.47
71795;BME280;59641;45.188;5.712;2022-07-29T01:51:41;98952.41;;;28.56;32.65
71795;BME280;59641;45.188;5.712;2022-07-29T01:54:14;98955.88;;;28.53;32.91
71795;BME280;59641;45.188;5.712;2022-07-29T01:56:42;98951.13;;;28.54;32.97
71795;BME280;59641;45.188;5.712;2022-07-29T01:59:10;98949.53;;;28.53;33.14
71795;BME280;59641;45.188;5.712;2022-07-29T02:01:39;98951.94;;;28.54;33.18
71795;BME280;59641;45.188;5.712;2022-07-29T02:04:07;98951.94;;;28.54;32.84
71795;BME280;59641;45.188;5.712;2022-07-29T02:06:37;98953.78;;;28.50;32.73
71795;BME280;59641;45.188;5.712;2022-07-29T02:09:04;98958.03;;;28.48;32.92
71795;BME280;59641;45.188;5.712;2022-07-29T02:11:33;98957.91;;;28.44;32.97
71795;BME280;59641;45.188;5.712;2022-07-29T02:14:00;98958.16;;;28.39;33.00
71795;BME280;59641;45.188;5.712;2022-07-29T02:16:29;98959.53;;;28.33;32.78
71795;BME280;59641;45.188;5.712;2022-07-29T02:18:57;98963.00;;;28.30;32.88
71795;BME280;59641;45.188;5.712;2022-07-29T02:21:25;98967.16;;;28.23;32.72
71795;BME280;59641;45.188;5.712;2022-07-29T02:23:52;98966.59;;;28.18;33.12
71795;BME280;59641;45.188;5.712;2022-07-29T02:26:20;98961.88;;;28.18;32.79
71795;BME280;59641;45.188;5.712;2022-07-29T02:28:50;98950.50;;;28.20;33.03
71795;BME280;59641;45.188;5.712;2022-07-29T02:31:19;98946.13;;;28.19;33.01
71795;BME280;59641;45.188;5.712;2022-07-29T02:33:47;98948.88;;;28.19;32.94
71795;BME280;59641;45.188;5.712;2022-07-29T02:36:15;98952.25;;;28.12;33.39
71795;BME280;59641;45.188;5.712;2022-07-29T02:38:42;98953.63;;;28.06;33.20
71795;BME280;59641;45.188;5.712;2022-07-29T02:41:23;98962.59;;;28.03;33.34
71795;BME280;59641;45.188;5.712;2022-07-29T02:43:55;98959.38;;;28.01;33.27
71795;BME280;59641;45.188;5.712;2022-07-29T02:46:27;98965.22;;;27.99;33.57
71795;BME280;59641;45.188;5.712;2022-07-29T02:48:59;98959.28;;;27.97;33.57
71795;BME280;59641;45.188;5.712;2022-07-29T02:51:45;98962.25;;;27.92;33.17
71795;BME280;59641;45.188;5.712;2022-07-29T02:54:22;98966.50;;;27.90;33.01
71795;BME280;59641;45.188;5.712;2022-07-29T02:56:49;98961.81;;;27.90;33.36
71795;BME280;59641;45.188;5.712;2022-07-29T02:59:22;98957.88;;;27.91;33.56
71795;BME280;59641;45.188;5.712;2022-07-29T03:01:49;98954.34;;;27.91;33.66
71795;BME280;59641;45.188;5.712;2022-07-29T03:04:17;98952.69;;;27.90;33.66
71795;BME280;59641;45.188;5.712;2022-07-29T03:06:45;98973.63;;;27.91;33.88
71795;BME280;59641;45.188;5.712;2022-07-29T03:09:12;98975.13;;;27.88;33.61
71795;BME280;59641;45.188;5.712;2022-07-29T03:11:38;98980.19;;;27.86;33.72
71795;BME280;59641;45.188;5.712;2022-07-29T03:14:05;98972.91;;;27.81;33.76
71795;BME280;59641;45.188;5.712;2022-07-29T03:16:31;98977.16;;;27.79;33.90
71795;BME280;59641;45.188;5.712;2022-07-29T03:18:58;98977.94;;;27.79;33.66
71795;BME280;59641;45.188;5.712;2022-07-29T03:21:24;98985.44;;;27.79;33.99
71795;BME280;59641;45.188;5.712;2022-07-29T03:23:49;98982.66;;;27.79;33.81
71795;BME280;59641;45.188;5.712;2022-07-29T03:26:15;98983.47;;;27.79;33.86
71795;BME280;59641;45.188;5.712;2022-07-29T03:28:40;98981.41;;;27.76;33.83
71795;BME280;59641;45.188;5.712;2022-07-29T03:31:05;98969.13;;;27.74;34.12
71795;BME280;59641;45.188;5.712;2022-07-29T03:33:31;98971.06;;;27.73;34.67
71795;BME280;59641;45.188;5.712;2022-07-29T03:35:56;98972.53;;;27.71;34.79
71795;BME280;59641;45.188;5.712;2022-07-29T03:38:24;98977.81;;;27.63;34.72
71795;BME280;59641;45.188;5.712;2022-07-29T03:40:56;98997.34;;;27.58;34.84
71795;BME280;59641;45.188;5.712;2022-07-29T03:43:24;99009.50;;;27.57;34.84
71795;BME280;59641;45.188;5.712;2022-07-29T03:45:54;99003.53;;;27.55;35.06
71795;BME280;59641;45.188;5.712;2022-07-29T03:48:22;99007.44;;;27.54;34.98
71795;BME280;59641;45.188;5.712;2022-07-29T03:50:50;99011.34;;;27.53;34.86
71795;BME280;59641;45.188;5.712;2022-07-29T03:53:16;99012.13;;;27.54;34.87
71795;BME280;59641;45.188;5.712;2022-07-29T03:55:45;99018.47;;;27.54;34.41
71795;BME280;59641;45.188;5.712;2022-07-29T03:58:12;99013.41;;;27.56;34.93
71795;BME280;59641;45.188;5.712;2022-07-29T04:00:40;99020.88;;;27.56;34.75
71795;BME280;59641;45.188;5.712;2022-07-29T04:03:07;99015.34;;;27.56;34.67
71795;BME280;59641;45.188;5.712;2022-07-29T04:05:33;99026.38;;;27.56;34.74
71795;BME280;59641;45.188;5.712;2022-07-29T04:07:59;99026.06;;;27.57;34.62
71795;BME280;59641;45.188;5.712;2022-07-29T04:10:24;99024.44;;;27.56;34.81
71795;BME280;59641;45.188;5.712;2022-07-29T04:12:50;99026.84;;;27.58;34.63
71795;BME280;59641;45.188;5.712;2022-07-29T04:15:15;99032.38;;;27.58;34.88
71795;BME280;59641;45.188;5.712;2022-07-29T04:17:41;99033.84;;;27.55;34.98
71795;BME280;59641;45.188;5.712;2022-07-29T04:20:07;99037.63;;;27.51;35.18
71795;BME280;59641;45.188;5.712;2022-07-29T04:22:32;99032.22;;;27.42;35.23
71795;BME280;59641;45.188;5.712;2022-07-29T04:24:57;99034.16;;;27.41;35.20
71795;BME280;59641;45.188;5.712;2022-07-29T04:27:23;99032.88;;;27.39;35.47
71795;BME280;59641;45.188;5.712;2022-07-29T04:29:49;99033.25;;;27.37;35.46
71795;BME280;59641;45.188;5.712;2022-07-29T04:32:14;99042.31;;;27.38;35.25
71795;BME280;59641;45.188;5.712;2022-07-29T04:34:40;99052.16;;;27.39;35.30
71795;BME280;59641;45.188;5.712;2022-07-29T04:37:05;99051.38;;;27.38;35.14
71795;BME280;59641;45.188;5.712;2022-07-29T04:39:30;99051.03;;;27.40;35.04
71795;BME280;59641;45.188;5.712;2022-07-29T04:41:56;99051.38;;;27.38;35.18
71795;BME280;59641;45.188;5.712;2022-07-29T04:44:21;99046.34;;;27.40;35.57
71795;BME280;59641;45.188;5.712;2022-07-29T04:46:47;99047.13;;;27.41;35.33
71795;BME280;59641;45.188;5.712;2022-07-29T04:49:12;99044.38;;;27.41;34.99
71795;BME280;59641;45.188;5.712;2022-07-29T04:51:38;99057.03;;;27.42;35.02
71795;BME280;59641;45.188;5.712;2022-07-29T04:54:03;99051.84;;;27.40;35.47
71795;BME280;59641;45.188;5.712;2022-07-29T04:56:29;99055.41;;;27.41;35.19
71795;BME280;59641;45.188;5.712;2022-07-29T04:58:54;99056.19;;;27.41;35.43
71795;BME280;59641;45.188;5.712;2022-07-29T05:01:20;99054.59;;;27.40;35.29
71795;BME280;59641;45.188;5.712;2022-07-29T05:03:45;99063.66;;;27.41;35.41
71795;BME280;59641;45.188;5.712;2022-07-29T05:06:11;99064.00;;;27.39;35.18
71795;BME280;59641;45.188;5.712;2022-07-29T05:08:37;99071.13;;;27.40;35.15
71795;BME280;59641;45.188;5.712;2022-07-29T05:11:03;99075.47;;;27.41;35.58
71795;BME280;59641;45.188;5.712;2022-07-29T05:13:29;99081.47;;;27.44;35.16
71795;BME280;59641;45.188;5.712;2022-07-29T05:15:54;99082.41;;;27.48;35.21
71795;BME280;59641;45.188;5.712;2022-07-29T05:18:20;99077.69;;;27.48;35.24
71795;BME280;59641;45.188;5.712;2022-07-29T05:20:45;99066.81;;;27.52;35.11
71795;BME280;59641;45.188;5.712;2022-07-29T05:23:10;99060.13;;;27.53;35.22
71795;BME280;59641;45.188;5.712;2022-07-29T05:25:38;99054.63;;;27.53;35.31
71795;BME280;59641;45.188;5.712;2022-07-29T05:28:03;99059.34;;;27.52;35.04
71795;BME280;59641;45.188;5.712;2022-07-29T05:30:29;99065.53;;;27.49;35.24
71795;BME280;59641;45.188;5.712;2022-07-29T05:32:54;99078.97;;;27.51;35.08
71795;BME280;59641;45.188;5.712;2022-07-29T05:35:19;99082.50;;;27.51;35.15
71795;BME280;59641;45.188;5.712;2022-07-29T05:37:45;99070.69;;;27.51;35.39
71795;BME280;59641;45.188;5.712;2022-07-29T05:40:10;99068.63;;;27.48;35.03
71795;BME280;59641;45.188;5.712;2022-07-29T05:42:36;99083.53;;;27.47;35.34
71795;BME280;59641;45.188;5.712;2022-07-29T05:45:02;99089.41;;;27.45;34.92
71795;BME280;59641;45.188;5.712;2022-07-29T05:47:28;99079.97;;;27.46;35.16
71795;BME280;59641;45.188;5.712;2022-07-29T05:49:53;99086.28;;;27.47;35.22
71795;BME280;59641;45.188;5.712;2022-07-29T05:52:19;99089.50;;;27.49;35.28
71795;BME280;59641;45.188;5.712;2022-07-29T05:54:44;99088.03;;;27.51;35.24
71795;BME280;59641;45.188;5.712;2022-07-29T05:57:17;99090.22;;;27.58;35.05
71795;BME280;59641;45.188;5.712;2022-07-29T05:59:43;99088.28;;;27.58;35.17
71795;BME280;59641;45.188;5.712;2022-07-29T06:02:08;99086.69;;;27.57;35.33
71795;BME280;59641;45.188;5.712;2022-07-29T06:04:34;99088.28;;;27.58;34.90
71795;BME280;59641;45.188;5.712;2022-07-29T06:06:59;99097.81;;;27.61;35.11
71795;BME280;59641;45.188;5.712;2022-07-29T06:09:25;99099.44;;;27.62;35.17
71795;BME280;59641;45.188;5.712;2022-07-29T06:11:51;99094.72;;;27.62;35.35
71795;BME280;59641;45.188;5.712;2022-07-29T06:14:17;99095.06;;;27.61;35.88
71795;BME280;59641;45.188;5.712;2022-07-29T06:16:43;99090.91;;;27.55;36.17
71795;BME280;59641;45.188;5.712;2022-07-29T06:19:08;99093.53;;;27.51;36.10
71795;BME280;59641;45.188;5.712;2022-07-29T06:21:34;99093.44;;;27.48;36.13
71795;BME280;59641;45.188;5.712;2022-07-29T06:23:59;99093.75;;;27.46;35.83
71795;BME280;59641;45.188;5.712;2022-07-29T06:26:25;99091.22;;;27.41;36.48
71795;BME280;59641;45.188;5.712;2022-07-29T06:28:50;99097.53;;;27.41;36.32
71795;BME280;59641;45.188;5.712;2022-07-29T06:31:15;99090.88;;;27.43;36.56
71795;BME280;59641;45.188;5.712;2022-07-29T06:33:41;99091.78;;;27.47;36.25
71795;BME280;59641;45.188;5.712;2022-07-29T06:36:06;99088.72;;;27.48;36.50
71795;BME280;59641;45.188;5.712;2022-07-29T06:38:33;99092.72;;;27.51;36.50
71795;BME280;59641;45.188;5.712;2022-07-29T06:40:59;99094.81;;;27.54;36.75
71795;BME280;59641;45.188;5.712;2022-07-29T06:43:45;99098.19;;;27.59;35.98
71795;BME280;59641;45.188;5.712;2022-07-29T06:46:15;99106.22;;;27.65;36.36
71795;BME280;59641;45.188;5.712;2022-07-29T06:48:43;99100.72;;;27.65;36.75
71795;BME280;59641;45.188;5.712;2022-07-29T06:51:09;99114.28;;;27.70;36.75
71795;BME280;59641;45.188;5.712;2022-07-29T06:53:35;99110.81;;;27.73;36.74
71795;BME280;59641;45.188;5.712;2022-07-29T06:56:02;99116.81;;;27.75;36.66
71795;BME280;59641;45.188;5.712;2022-07-29T06:58:28;99120.50;;;27.79;36.77
71795;BME280;59641;45.188;5.712;2022-07-29T07:00:54;99115.47;;;27.81;36.86
71795;BME280;59641;45.188;5.712;2022-07-29T07:03:20;99115.59;;;27.85;36.62
71795;BME280;59641;45.188;5.712;2022-07-29T07:05:46;99116.88;;;27.87;37.23
71795;BME280;59641;45.188;5.712;2022-07-29T07:08:12;99119.75;;;27.91;37.13
71795;BME280;59641;45.188;5.712;2022-07-29T07:10:38;99127.34;;;27.94;36.88
71795;BME280;59641;45.188;5.712;2022-07-29T07:13:04;99125.38;;;27.94;36.77
71795;BME280;59641;45.188;5.712;2022-07-29T07:15:31;99128.50;;;27.93;36.35
71795;BME280;59641;45.188;5.712;2022-07-29T07:17:56;99123.91;;;27.97;35.73
71795;BME280;59641;45.188;5.712;2022-07-29T07:20:23;99130.69;;;27.99;35.02
71795;BME280;59641;45.188;5.712;2022-07-29T07:22:49;99136.00;;;28.04;34.94
71795;BME280;59641;45.188;5.712;2022-07-29T07:25:14;99134.94;;;28.09;34.49
71795;BME280;59641;45.188;5.712;2022-07-29T07:27:40;99131.84;;;28.11;34.82
71795;BME280;59641;45.188;5.712;2022-07-29T07:30:06;99138.97;;;28.12;34.49
71795;BME280;59641;45.188;5.712;2022-07-29T07:32:35;99131.06;;;28.10;35.72
71795;BME280;59641;45.188;5.712;2022-07-29T07:35:03;99136.56;;;28.10;35.64
71795;BME280;59641;45.188;5.712;2022-07-29T07:37:28;99131.38;;;28.09;34.89
71795;BME280;59641;45.188;5.712;2022-07-29T07:39:54;99135.41;;;28.11;34.58
71795;BME280;59641;45.188;5.712;2022-07-29T07:42:19;99136.56;;;28.10;34.29
71795;BME280;59641;45.188;5.712;2022-07-29T07:44:45;99138.88;;;28.08;35.20
71795;BME280;59641;45.188;5.712;2022-07-29T07:47:11;99134.50;;;28.07;35.37
71795;BME280;59641;45.188;5.712;2022-07-29T07:49:37;99136.09;;;28.08;35.86
71795;BME280;59641;45.188;5.712;2022-07-29T07:52:03;99135.31;;;28.08;35.88
71795;BME280;59641;45.188;5.712;2022-07-29T07:54:29;99136.91;;;28.09;35.67
71795;BME280;59641;45.188;5.712;2022-07-29T07:56:54;99131.06;;;28.10;35.69
71795;BME280;59641;45.188;5.712;2022-07-29T07:59:20;99128.31;;;28.10;35.56
71795;BME280;59641;45.188;5.712;2022-07-29T08:01:45;99135.09;;;28.13;35.27
71795;BME280;59641;45.188;5.712;2022-07-29T08:04:10;99137.84;;;28.13;34.87
71795;BME280;59641;45.188;5.712;2022-07-29T08:06:36;99134.75;;;28.14;35.06
71795;BME280;59641;45.188;5.712;2022-07-29T08:09:03;99134.38;;;28.16;34.90
71795;BME280;59641;45.188;5.712;2022-07-29T08:11:29;99139.56;;;28.17;35.29
71795;BME280;59641;45.188;5.712;2022-07-29T08:13:54;99146.34;;;28.20;35.34
71795;BME280;59641;45.188;5.712;2022-07-29T08:16:20;99147.16;;;28.20;35.93
71795;BME280;59641;45.188;5.712;2022-07-29T08:18:46;99154.31;;;28.21;35.62
71795;BME280;59641;45.188;5.712;2022-07-29T08:21:12;99151.88;;;28.20;35.63
71795;BME280;59641;45.188;5.712;2022-07-29T08:23:38;99157.06;;;28.21;35.62
71795;BME280;59641;45.188;5.712;2022-07-29T08:26:08;99159.81;;;28.21;35.93
71795;BME280;59641;45.188;5.712;2022-07-29T08:28:37;99164.41;;;28.17;35.95
71795;BME280;59641;45.188;5.712;2022-07-29T08:31:03;99175.75;;;28.16;36.22
71795;BME280;59641;45.188;5.712;2022-07-29T08:33:28;99187.97;;;28.15;36.24
71795;BME280;59641;45.188;5.712;2022-07-29T08:35:54;99205.16;;;28.12;36.22
71795;BME280;59641;45.188;5.712;2022-07-29T08:38:19;99230.00;;;28.12;35.91
71795;BME280;59641;45.188;5.712;2022-07-29T08:40:45;99258.72;;;28.11;36.08
71795;BME280;59641;45.188;5.712;2022-07-29T08:43:11;99268.50;;;28.08;36.41
71795;BME280;59641;45.188;5.712;2022-07-29T08:45:48;99279.41;;;28.04;36.04
71795;BME280;59641;45.188;5.712;2022-07-29T08:48:17;99282.81;;;28.01;36.19
71795;BME280;59641;45.188;5.712;2022-07-29T08:50:44;99308.44;;;28.02;36.29
71795;BME280;59641;45.188;5.712;2022-07-29T08:53:15;99328.91;;;28.01;36.92
71795;BME280;59641;45.188;5.712;2022-07-29T08:55:46;99337.97;;;28.01;38.22
71795;BME280;59641;45.188;5.712;2022-07-29T08:58:13;99342.09;;;27.95;41.39
71795;BME280;59641;45.188;5.712;2022-07-29T09:00:42;99355.66;;;27.79;42.77
71795;BME280;59641;45.188;5.712;2022-07-29T09:03:09;99358.56;;;27.53;44.66
71795;BME280;59641;45.188;5.712;2022-07-29T09:05:41;99364.84;;;27.33;44.92
71795;BME280;59641;45.188;5.712;2022-07-29T09:08:06;99373.31;;;27.10;46.63
71795;BME280;59641;45.188;5.712;2022-07-29T09:10:32;99382.13;;;26.86;47.68
71795;BME280;59641;45.188;5.712;2022-07-29T09:12:57;99394.97;;;26.65;47.62
71795;BME280;59641;45.188;5.712;2022-07-29T09:15:23;99409.69;;;26.43;48.10
71795;BME280;59641;45.188;5.712;2022-07-29T09:17:49;99424.59;;;26.24;49.40
71795;BME280;59641;45.188;5.712;2022-07-29T09:20:17;99423.28;;;26.04;50.92
71795;BME280;59641;45.188;5.712;2022-07-29T09:22:43;99437.50;;;25.89;50.74
71795;BME280;59641;45.188;5.712;2022-07-29T09:25:11;99441.97;;;25.76;51.22
71795;BME280;59641;45.188;5.712;2022-07-29T09:27:37;99449.66;;;25.65;51.70
71795;BME280;59641;45.188;5.712;2022-07-29T09:30:03;99456.25;;;25.56;51.09
71795;BME280;59641;45.188;5.712;2022-07-29T09:32:30;99459.59;;;25.44;52.40
71795;BME280;59641;45.188;5.712;2022-07-29T09:35:15;99460.06;;;25.37;51.46
71795;BME280;59641;45.188;5.712;2022-07-29T09:37:43;99467.13;;;25.29;53.96
71795;BME280;59641;45.188;5.712;2022-07-29T09:40:13;99469.00;;;25.20;54.33
71795;BME280;59641;45.188;5.712;2022-07-29T09:42:39;99469.91;;;25.16;54.47
71795;BME280;59641;45.188;5.712;2022-07-29T09:45:05;99467.81;;;25.13;53.82
71795;BME280;59641;45.188;5.712;2022-07-29T09:47:44;99465.88;;;25.13;52.62
71795;BME280;59641;45.188;5.712;2022-07-29T09:50:10;99464.06;;;25.08;54.44
71795;BME280;59641;45.188;5.712;2022-07-29T09:52:45;99473.28;;;25.04;55.49
71795;BME280;59641;45.188;5.712;2022-07-29T09:55:12;99460.47;;;24.99;54.29
71795;BME280;59641;45.188;5.712;2022-07-29T09:57:37;99462.22;;;24.95;54.50
71795;BME280;59641;45.188;5.712;2022-07-29T10:02:35;99463.00;;;24.87;54.83
71795;BME280;59641;45.188;5.712;2022-07-29T10:05:04;99461.19;;;24.82;55.87
71795;BME280;59641;45.188;5.712;2022-07-29T10:07:50;99470.66;;;24.76;55.80
71795;BME280;59641;45.188;5.712;2022-07-29T10:10:28;99472.38;;;24.72;56.88
71795;BME280;59641;45.188;5.712;2022-07-29T10:15:27;99457.34;;;24.70;56.47
71795;BME280;59641;45.188;5.712;2022-07-29T10:17:55;99456.56;;;24.69;56.92
71795;BME280;59641;45.188;5.712;2022-07-29T10:20:21;99447.81;;;24.67;56.45
71795;BME280;59641;45.188;5.712;2022-07-29T10:22:48;99448.16;;;24.65;57.22
71795;BME280;59641;45.188;5.712;2022-07-29T10:25:15;99445.69;;;24.64;57.51
71795;BME280;59641;45.188;5.712;2022-07-29T10:27:42;99444.09;;;24.63;57.39
71795;BME280;59641;45.188;5.712;2022-07-29T10:30:08;99450.69;;;24.62;58.52
71795;BME280;59641;45.188;5.712;2022-07-29T10:35:43;99452.41;;;24.58;57.55
71795;BME280;59641;45.188;5.712;2022-07-29T10:38:42;99457.72;;;24.54;56.03
71795;BME280;59641;45.188;5.712;2022-07-29T10:46:24;99465.34;;;24.43;57.25
71795;BME280;59641;45.188;5.712;2022-07-29T10:49:10;99464.34;;;24.39;57.40
71795;BME280;59641;45.188;5.712;2022-07-29T10:57:30;99458.16;;;24.34;56.83
71795;BME280;59641;45.188;5.712;2022-07-29T11:07:32;99477.19;;;24.30;58.72
71795;BME280;59641;45.188;5.712;2022-07-29T11:15:06;99471.41;;;24.32;59.67
71795;BME280;59641;45.188;5.712;2022-07-29T11:20:44;99467.53;;;24.33;58.65
71795;BME280;59641;45.188;5.712;2022-07-29T11:23:40;99463.63;;;24.34;58.62
71795;BME280;59641;45.188;5.712;2022-07-29T11:31:31;99457.75;;;24.40;59.87
71795;BME280;59641;45.188;5.712;2022-07-29T11:39:47;99425.84;;;24.44;59.45
71795;BME280;59641;45.188;5.712;2022-07-29T11:45:13;99438.16;;;24.47;59.27
71795;BME280;59641;45.188;5.712;2022-07-29T11:47:48;99428.78;;;24.48;59.38
71795;BME280;59641;45.188;5.712;2022-07-29T11:50:27;99440.59;;;24.49;59.17
71795;BME280;59641;45.188;5.712;2022-07-29T11:52:53;99438.97;;;24.48;59.78
71795;BME280;59641;45.188;5.712;2022-07-29T11:55:20;99441.69;;;24.48;59.68
71795;BME280;59641;45.188;5.712;2022-07-29T11:57:54;99449.94;;;24.48;59.36
71795;BME280;59641;45.188;5.712;2022-07-29T12:02:51;99449.72;;;24.44;59.36
71795;BME280;59641;45.188;5.712;2022-07-29T12:05:17;99448.59;;;24.45;59.31
71795;BME280;59641;45.188;5.712;2022-07-29T12:07:43;99440.09;;;24.47;60.27
71795;BME280;59641;45.188;5.712;2022-07-29T12:10:09;99424.44;;;24.47;60.24
71795;BME280;59641;45.188;5.712;2022-07-29T12:12:35;99425.75;;;24.50;59.61
71795;BME280;59641;45.188;5.712;2022-07-29T12:15:30;99424.59;;;24.51;58.60
71795;BME280;59641;45.188;5.712;2022-07-29T12:17:55;99417.22;;;24.51;60.17
71795;BME280;59641;45.188;5.712;2022-07-29T12:20:30;99417.69;;;24.53;57.64
71795;BME280;59641;45.188;5.712;2022-07-29T12:22:56;99413.03;;;24.54;58.36
71795;BME280;59641;45.188;5.712;2022-07-29T12:25:23;99423.69;;;24.55;58.51
71795;BME280;59641;45.188;5.712;2022-07-29T12:28:03;99418.19;;;24.55;58.58
71795;BME280;59641;45.188;5.712;2022-07-29T12:30:47;99423.06;;;24.58;58.58
71795;BME280;59641;45.188;5.712;2022-07-29T12:33:23;99421.31;;;24.62;58.23
71795;BME280;59641;45.188;5.712;2022-07-29T12:35:54;99420.38;;;24.67;58.42
71795;BME280;59641;45.188;5.712;2022-07-29T12:38:20;99417.50;;;24.72;58.19
71795;BME280;59641;45.188;5.712;2022-07-29T12:40:47;99415.75;;;24.76;58.67
71795;BME280;59641;45.188;5.712;2022-07-29T12:43:18;99420.13;;;24.77;58.94
71795;BME280;59641;45.188;5.712;2022-07-29T12:45:47;99410.16;;;24.81;58.12
71795;BME280;59641;45.188;5.712;2022-07-29T12:48:13;99412.75;;;24.86;59.09
71795;BME280;59641;45.188;5.712;2022-07-29T12:51:14;99408.13;;;24.96;59.51
71795;BME280;59641;45.188;5.712;2022-07-29T12:54:10;99409.31;;;25.03;58.19
71795;BME280;59641;45.188;5.712;2022-07-29T12:56:44;99400.13;;;25.08;57.56
71795;BME280;59641;45.188;5.712;2022-07-29T12:59:21;99402.25;;;25.11;57.73
71795;BME280;59641;45.188;5.712;2022-07-29T13:01:49;99400.47;;;25.15;56.96
71795;BME280;59641;45.188;5.712;2022-07-29T13:04:29;99394.88;;;25.20;55.71
71795;BME280;59641;45.188;5.712;2022-07-29T13:09:39;99389.13;;;25.31;55.99
71795;BME280;59641;45.188;5.712;2022-07-29T13:12:10;99382.69;;;25.35;55.53
71795;BME280;59641;45.188;5.712;2022-07-29T13:17:07;99380.75;;;25.44;55.41
71795;BME280;59641;45.188;5.712;2022-07-29T13:19:48;99373.50;;;25.48;55.91
71795;BME280;59641;45.188;5.712;2022-07-29T13:22:15;99378.84;;;25.54;55.30
71795;BME280;59641;45.188;5.712;2022-07-29T13:24:55;99375.44;;;25.57;55.86
71795;BME280;59641;45.188;5.712;2022-07-29T13:27:24;99366.25;;;25.61;55.94
71795;BME280;59641;45.188;5.712;2022-07-29T13:29:50;99366.94;;;25.67;55.83
71795;BME280;59641;45.188;5.712;2022-07-29T13:32:18;99366.28;;;25.70;55.46
71795;BME280;59641;45.188;5.712;2022-07-29T13:34:43;99361.44;;;25.76;54.89
71795;BME280;59641;45.188;5.712;2022-07-29T13:37:09;99356.59;;;25.81;54.91
71795;BME280;59641;45.188;5.712;2022-07-29T13:39:34;99343.81;;;25.85;54.57
71795;BME280;59641;45.188;5.712;2022-07-29T13:42:00;99344.03;;;25.89;54.58
71795;BME280;59641;45.188;5.712;2022-07-29T13:44:26;99338.06;;;25.96;55.04
71795;BME280;59641;45.188;5.712;2022-07-29T13:46:52;99335.63;;;26.03;54.22
71795;BME280;59641;45.188;5.712;2022-07-29T13:49:17;99333.84;;;26.07;53.95
71795;BME280;59641;45.188;5.712;2022-07-29T13:51:42;99327.38;;;26.11;54.01
71795;BME280;59641;45.188;5.712;2022-07-29T13:54:08;99325.59;;;26.16;53.64
71795;BME280;59641;45.188;5.712;2022-07-29T13:56:33;99323.81;;;26.20;53.85
71795;BME280;59641;45.188;5.712;2022-07-29T13:58:59;99317.66;;;26.23;53.47
71795;BME280;59641;45.188;5.712;2022-07-29T14:01:25;99313.94;;;26.27;53.24
71795;BME280;59641;45.188;5.712;2022-07-29T14:03:51;99306.16;;;26.29;53.59
71795;BME280;59641;45.188;5.712;2022-07-29T14:06:16;99305.50;;;26.32;53.42
71795;BME280;59641;45.188;5.712;2022-07-29T14:08:42;99304.53;;;26.37;53.80
71795;BME280;59641;45.188;5.712;2022-07-29T14:11:08;99298.06;;;26.42;53.42
71795;BME280;59641;45.188;5.712;2022-07-29T14:13:33;99288.34;;;26.44;53.32